sensor_id;sensor_type;location;lat;lon;timestamp;temperature;humidity
25450;DHT22;13371;52.080;5.624;2023-08-12T00:01:39;24.20;97.70
25450;DHT22;13371;52.080;5.624;2023-08-12T00:04:04;24.20;97.90
25450;DHT22;13371;52.080;5.624;2023-08-12T00:06:30;24.00;98.10
25450;DHT22;13371;52.080;5.624;2023-08-12T00:08:56;24.00;98.40
25450;DHT22;13371;52.080;5.624;2023-08-12T00:11:21;24.00;98.60
25450;DHT22;13371;52.080;5.624;2023-08-12T00:13:47;24.00;98.30
25450;DHT22;13371;52.080;5.624;2023-08-12T00:16:12;24.10;98.40
25450;DHT22;13371;52.080;5.624;2023-08-12T00:18:38;24.30;97.90
25450;DHT22;13371;52.080;5.624;2023-08-12T00:21:07;24.20;97.90
25450;DHT22;13371;52.080;5.624;2023-08-12T00:23:40;23.80;98.60
25450;DHT22;13371;52.080;5.624;2023-08-12T00:26:06;23.60;99.30
25450;DHT22;13371;52.080;5.624;2023-08-12T00:28:33;23.90;98.90
25450;DHT22;13371;52.080;5.624;2023-08-12T00:30:58;23.90;98.80
25450;DHT22;13371;52.080;5.624;2023-08-12T00:33:24;23.90;98.90
25450;DHT22;13371;52.080;5.624;2023-08-12T00:35:49;23.90;98.70
25450;DHT22;13371;52.080;5.624;2023-08-12T00:38:15;24.00;98.60
25450;DHT22;13371;52.080;5.624;2023-08-12T00:40:41;23.80;98.90
25450;DHT22;13371;52.080;5.624;2023-08-12T00:43:06;24.00;98.60
25450;DHT22;13371;52.080;5.624;2023-08-12T00:45:33;23.90;98.70
25450;DHT22;13371;52.080;5.624;2023-08-12T00:47:59;23.60;99.30
25450;DHT22;13371;52.080;5.624;2023-08-12T00:50:25;23.40;99.90
25450;DHT22;13371;52.080;5.624;2023-08-12T00:52:51;23.60;99.60
25450;DHT22;13371;52.080;5.624;2023-08-12T00:55:17;23.70;99.60
25450;DHT22;13371;52.080;5.624;2023-08-12T00:57:43;23.80;99.20
25450;DHT22;13371;52.080;5.624;2023-08-12T01:00:10;23.70;99.30
25450;DHT22;13371;52.080;5.624;2023-08-12T01:02:35;23.10;99.90
25450;DHT22;13371;52.080;5.624;2023-08-12T01:05:01;23.10;99.90
25450;DHT22;13371;52.080;5.624;2023-08-12T01:07:27;22.90;99.90
25450;DHT22;13371;52.080;5.624;2023-08-12T01:09:53;22.70;99.90
25450;DHT22;13371;52.080;5.624;2023-08-12T01:12:31;23.00;99.90
25450;DHT22;13371;52.080;5.624;2023-08-12T01:15:18;23.30;99.90
25450;DHT22;13371;52.080;5.624;2023-08-12T01:17:47;23.40;99.90
25450;DHT22;13371;52.080;5.624;2023-08-12T01:20:21;23.20;99.90
25450;DHT22;13371;52.080;5.624;2023-08-12T01:22:56;23.30;99.90
25450;DHT22;13371;52.080;5.624;2023-08-12T01:25:24;23.60;99.90
25450;DHT22;13371;52.080;5.624;2023-08-12T01:27:50;23.70;99.90
25450;DHT22;13371;52.080;5.624;2023-08-12T01:30:16;23.80;99.40
25450;DHT22;13371;52.080;5.624;2023-08-12T01:32:57;23.90;99.20
25450;DHT22;13371;52.080;5.624;2023-08-12T01:35:28;24.00;98.90
25450;DHT22;13371;52.080;5.624;2023-08-12T01:37:57;23.80;99.10
25450;DHT22;13371;52.080;5.624;2023-08-12T01:40:24;23.50;99.90
25450;DHT22;13371;52.080;5.624;2023-08-12T01:42:50;23.60;99.80
25450;DHT22;13371;52.080;5.624;2023-08-12T01:45:18;23.80;99.40
25450;DHT22;13371;52.080;5.624;2023-08-12T01:47:44;23.60;99.90
25450;DHT22;13371;52.080;5.624;2023-08-12T01:50:10;23.60;99.70
25450;DHT22;13371;52.080;5.624;2023-08-12T01:52:36;23.80;99.50
25450;DHT22;13371;52.080;5.624;2023-08-12T01:55:01;23.80;99.40
25450;DHT22;13371;52.080;5.624;2023-08-12T01:57:27;23.50;99.90
25450;DHT22;13371;52.080;5.624;2023-08-12T01:59:52;23.30;99.90
25450;DHT22;13371;52.080;5.624;2023-08-12T02:02:18;23.20;99.90
25450;DHT22;13371;52.080;5.624;2023-08-12T02:04:44;23.00;99.90
25450;DHT22;13371;52.080;5.624;2023-08-12T02:07:10;23.30;99.90
25450;DHT22;13371;52.080;5.624;2023-08-12T02:09:35;23.30;99.90
25450;DHT22;13371;52.080;5.624;2023-08-12T02:12:01;23.10;99.90
25450;DHT22;13371;52.080;5.624;2023-08-12T02:14:26;22.90;99.90
25450;DHT22;13371;52.080;5.624;2023-08-12T02:16:52;22.80;99.90
25450;DHT22;13371;52.080;5.624;2023-08-12T02:19:18;23.00;99.90
25450;DHT22;13371;52.080;5.624;2023-08-12T02:21:43;23.10;99.90
25450;DHT22;13371;52.080;5.624;2023-08-12T02:24:09;23.40;99.90
25450;DHT22;13371;52.080;5.624;2023-08-12T02:26:35;23.10;99.90
25450;DHT22;13371;52.080;5.624;2023-08-12T02:29:00;22.50;99.90
25450;DHT22;13371;52.080;5.624;2023-08-12T02:31:26;22.50;99.90
25450;DHT22;13371;52.080;5.624;2023-08-12T02:33:52;22.70;99.90
25450;DHT22;13371;52.080;5.624;2023-08-12T02:36:17;22.50;99.90
25450;DHT22;13371;52.080;5.624;2023-08-12T02:38:43;22.90;99.90
25450;DHT22;13371;52.080;5.624;2023-08-12T02:41:09;22.90;99.90
25450;DHT22;13371;52.080;5.624;2023-08-12T02:43:34;22.80;99.90
25450;DHT22;13371;52.080;5.624;2023-08-12T02:46:00;22.80;99.90
25450;DHT22;13371;52.080;5.624;2023-08-12T02:48:26;22.90;99.90
25450;DHT22;13371;52.080;5.624;2023-08-12T02:50:51;22.80;99.90
25450;DHT22;13371;52.080;5.624;2023-08-12T02:53:17;22.60;99.90
25450;DHT22;13371;52.080;5.624;2023-08-12T02:55:44;22.60;99.90
25450;DHT22;13371;52.080;5.624;2023-08-12T02:58:10;22.80;99.90
25450;DHT22;13371;52.080;5.624;2023-08-12T03:00:35;23.00;99.90
25450;DHT22;13371;52.080;5.624;2023-08-12T03:03:01;23.20;99.90
25450;DHT22;13371;52.080;5.624;2023-08-12T03:05:27;23.10;99.90
25450;DHT22;13371;52.080;5.624;2023-08-12T03:07:52;23.10;99.90
25450;DHT22;13371;52.080;5.624;2023-08-12T03:10:18;23.10;99.90
25450;DHT22;13371;52.080;5.624;2023-08-12T03:12:44;23.20;99.90
25450;DHT22;13371;52.080;5.624;2023-08-12T03:15:10;23.10;99.90
25450;DHT22;13371;52.080;5.624;2023-08-12T03:17:36;22.80;99.90
25450;DHT22;13371;52.080;5.624;2023-08-12T03:20:04;22.90;99.90
25450;DHT22;13371;52.080;5.624;2023-08-12T03:22:31;23.00;99.90
25450;DHT22;13371;52.080;5.624;2023-08-12T03:24:56;23.20;99.90
25450;DHT22;13371;52.080;5.624;2023-08-12T03:27:22;23.20;99.90
25450;DHT22;13371;52.080;5.624;2023-08-12T03:29:48;23.10;99.90
25450;DHT22;13371;52.080;5.624;2023-08-12T03:32:13;23.20;99.90
25450;DHT22;13371;52.080;5.624;2023-08-12T03:34:39;23.30;99.90
25450;DHT22;13371;52.080;5.624;2023-08-12T03:37:05;23.10;99.90
25450;DHT22;13371;52.080;5.624;2023-08-12T03:39:30;23.10;99.90
25450;DHT22;13371;52.080;5.624;2023-08-12T03:41:56;23.20;99.90
25450;DHT22;13371;52.080;5.624;2023-08-12T03:44:22;23.20;99.90
25450;DHT22;13371;52.080;5.624;2023-08-12T03:46:48;23.10;99.90
25450;DHT22;13371;52.080;5.624;2023-08-12T03:49:13;22.70;99.90
25450;DHT22;13371;52.080;5.624;2023-08-12T03:51:39;22.70;99.90
25450;DHT22;13371;52.080;5.624;2023-08-12T03:54:05;23.00;99.90
25450;DHT22;13371;52.080;5.624;2023-08-12T03:56:30;22.60;99.90
25450;DHT22;13371;52.080;5.624;2023-08-12T03:58:56;22.60;99.90
25450;DHT22;13371;52.080;5.624;2023-08-12T04:01:21;22.80;99.90
25450;DHT22;13371;52.080;5.624;2023-08-12T04:03:47;22.90;99.90
25450;DHT22;13371;52.080;5.624;2023-08-12T04:06:13;23.20;99.90
25450;DHT22;13371;52.080;5.624;2023-08-12T04:08:39;22.90;99.90
25450;DHT22;13371;52.080;5.624;2023-08-12T04:11:04;22.80;99.90
25450;DHT22;13371;52.080;5.624;2023-08-12T04:13:30;22.90;99.90
25450;DHT22;13371;52.080;5.624;2023-08-12T04:15:55;22.80;99.90
25450;DHT22;13371;52.080;5.624;2023-08-12T04:18:21;23.00;99.90
25450;DHT22;13371;52.080;5.624;2023-08-12T04:20:51;22.90;99.90
25450;DHT22;13371;52.080;5.624;2023-08-12T04:23:17;23.00;99.90
25450;DHT22;13371;52.080;5.624;2023-08-12T04:25:44;23.10;99.90
25450;DHT22;13371;52.080;5.624;2023-08-12T04:28:11;23.10;99.90
25450;DHT22;13371;52.080;5.624;2023-08-12T04:30:43;23.10;99.90
25450;DHT22;13371;52.080;5.624;2023-08-12T04:33:09;23.20;99.90
25450;DHT22;13371;52.080;5.624;2023-08-12T04:35:35;23.00;99.90
25450;DHT22;13371;52.080;5.624;2023-08-12T04:38:00;23.00;99.90
25450;DHT22;13371;52.080;5.624;2023-08-12T04:40:26;23.40;99.90
25450;DHT22;13371;52.080;5.624;2023-08-12T04:42:51;23.30;99.90
25450;DHT22;13371;52.080;5.624;2023-08-12T04:45:17;23.40;99.90
25450;DHT22;13371;52.080;5.624;2023-08-12T04:47:43;23.30;99.90
25450;DHT22;13371;52.080;5.624;2023-08-12T04:50:08;23.40;99.90
25450;DHT22;13371;52.080;5.624;2023-08-12T04:52:34;23.30;99.90
25450;DHT22;13371;52.080;5.624;2023-08-12T04:55:00;23.30;99.90
25450;DHT22;13371;52.080;5.624;2023-08-12T04:57:25;23.40;99.90
25450;DHT22;13371;52.080;5.624;2023-08-12T04:59:51;23.10;99.90
25450;DHT22;13371;52.080;5.624;2023-08-12T05:02:16;23.20;99.90
25450;DHT22;13371;52.080;5.624;2023-08-12T05:04:50;22.90;99.90
25450;DHT22;13371;52.080;5.624;2023-08-12T05:07:16;23.10;99.90
25450;DHT22;13371;52.080;5.624;2023-08-12T05:09:41;23.20;99.90
25450;DHT22;13371;52.080;5.624;2023-08-12T05:12:10;23.20;99.90
25450;DHT22;13371;52.080;5.624;2023-08-12T05:14:36;23.30;99.90
25450;DHT22;13371;52.080;5.624;2023-08-12T05:17:01;23.20;99.90
25450;DHT22;13371;52.080;5.624;2023-08-12T05:19:27;23.20;99.90
25450;DHT22;13371;52.080;5.624;2023-08-12T05:21:52;23.00;99.90
25450;DHT22;13371;52.080;5.624;2023-08-12T05:24:18;22.80;99.90
25450;DHT22;13371;52.080;5.624;2023-08-12T05:26:43;22.70;99.90
25450;DHT22;13371;52.080;5.624;2023-08-12T05:29:09;22.70;99.90
25450;DHT22;13371;52.080;5.624;2023-08-12T05:31:35;22.90;99.90
25450;DHT22;13371;52.080;5.624;2023-08-12T05:34:00;22.80;99.90
25450;DHT22;13371;52.080;5.624;2023-08-12T05:36:26;23.00;99.90
25450;DHT22;13371;52.080;5.624;2023-08-12T05:38:51;22.80;99.90
25450;DHT22;13371;52.080;5.624;2023-08-12T05:41:17;23.00;99.90
25450;DHT22;13371;52.080;5.624;2023-08-12T05:43:42;23.00;99.90
25450;DHT22;13371;52.080;5.624;2023-08-12T05:46:08;23.10;99.90
25450;DHT22;13371;52.080;5.624;2023-08-12T05:48:33;23.10;99.90
25450;DHT22;13371;52.080;5.624;2023-08-12T05:50:59;22.90;99.90
25450;DHT22;13371;52.080;5.624;2023-08-12T05:53:25;23.00;99.90
25450;DHT22;13371;52.080;5.624;2023-08-12T05:55:50;23.00;99.90
25450;DHT22;13371;52.080;5.624;2023-08-12T05:58:16;22.90;99.90
25450;DHT22;13371;52.080;5.624;2023-08-12T06:00:41;23.10;99.90
25450;DHT22;13371;52.080;5.624;2023-08-12T06:03:11;23.00;99.90
25450;DHT22;13371;52.080;5.624;2023-08-12T06:05:37;23.00;99.90
25450;DHT22;13371;52.080;5.624;2023-08-12T06:08:02;23.10;99.90
25450;DHT22;13371;52.080;5.624;2023-08-12T06:10:28;23.10;99.90
25450;DHT22;13371;52.080;5.624;2023-08-12T06:12:53;23.20;99.90
25450;DHT22;13371;52.080;5.624;2023-08-12T06:15:19;23.30;99.90
25450;DHT22;13371;52.080;5.624;2023-08-12T06:17:44;23.30;99.90
25450;DHT22;13371;52.080;5.624;2023-08-12T06:20:11;23.30;99.90
25450;DHT22;13371;52.080;5.624;2023-08-12T06:22:37;23.30;99.90
25450;DHT22;13371;52.080;5.624;2023-08-12T06:25:03;23.40;99.90
25450;DHT22;13371;52.080;5.624;2023-08-12T06:27:28;23.60;99.90
25450;DHT22;13371;52.080;5.624;2023-08-12T06:29:54;23.50;99.90
25450;DHT22;13371;52.080;5.624;2023-08-12T06:32:20;23.40;99.90
25450;DHT22;13371;52.080;5.624;2023-08-12T06:34:45;23.30;99.90
25450;DHT22;13371;52.080;5.624;2023-08-12T06:37:11;23.00;99.90
25450;DHT22;13371;52.080;5.624;2023-08-12T06:39:36;23.10;99.90
25450;DHT22;13371;52.080;5.624;2023-08-12T06:42:02;23.00;99.90
25450;DHT22;13371;52.080;5.624;2023-08-12T06:44:28;23.20;99.90
25450;DHT22;13371;52.080;5.624;2023-08-12T06:46:54;23.20;99.90
25450;DHT22;13371;52.080;5.624;2023-08-12T06:49:21;23.00;99.90
25450;DHT22;13371;52.080;5.624;2023-08-12T06:51:46;23.10;99.90
25450;DHT22;13371;52.080;5.624;2023-08-12T06:54:12;23.00;99.90
25450;DHT22;13371;52.080;5.624;2023-08-12T06:56:37;23.10;99.90
25450;DHT22;13371;52.080;5.624;2023-08-12T06:59:03;23.20;99.90
25450;DHT22;13371;52.080;5.624;2023-08-12T07:01:29;23.00;99.90
25450;DHT22;13371;52.080;5.624;2023-08-12T07:03:55;23.10;99.90
25450;DHT22;13371;52.080;5.624;2023-08-12T07:06:20;22.80;99.90
25450;DHT22;13371;52.080;5.624;2023-08-12T07:08:46;22.70;99.90
25450;DHT22;13371;52.080;5.624;2023-08-12T07:11:11;22.70;99.90
25450;DHT22;13371;52.080;5.624;2023-08-12T07:13:37;22.70;99.90
25450;DHT22;13371;52.080;5.624;2023-08-12T07:16:02;22.70;99.90
25450;DHT22;13371;52.080;5.624;2023-08-12T07:18:28;22.90;99.90
25450;DHT22;13371;52.080;5.624;2023-08-12T07:20:54;22.90;99.90
25450;DHT22;13371;52.080;5.624;2023-08-12T07:23:20;23.00;99.90
25450;DHT22;13371;52.080;5.624;2023-08-12T07:25:46;23.10;99.90
25450;DHT22;13371;52.080;5.624;2023-08-12T07:28:12;23.10;99.90
25450;DHT22;13371;52.080;5.624;2023-08-12T07:30:38;23.20;99.90
25450;DHT22;13371;52.080;5.624;2023-08-12T07:33:04;23.10;99.90
25450;DHT22;13371;52.080;5.624;2023-08-12T07:35:30;23.10;99.90
25450;DHT22;13371;52.080;5.624;2023-08-12T07:37:55;23.20;99.90
25450;DHT22;13371;52.080;5.624;2023-08-12T07:40:21;23.20;99.90
25450;DHT22;13371;52.080;5.624;2023-08-12T07:42:46;23.20;99.90
25450;DHT22;13371;52.080;5.624;2023-08-12T07:45:12;22.90;99.90
25450;DHT22;13371;52.080;5.624;2023-08-12T07:47:38;23.10;99.90
25450;DHT22;13371;52.080;5.624;2023-08-12T07:50:04;23.20;99.90
25450;DHT22;13371;52.080;5.624;2023-08-12T07:52:30;23.10;99.90
25450;DHT22;13371;52.080;5.624;2023-08-12T07:54:56;23.10;99.90
25450;DHT22;13371;52.080;5.624;2023-08-12T07:57:21;23.00;99.90
25450;DHT22;13371;52.080;5.624;2023-08-12T07:59:52;22.90;99.90
25450;DHT22;13371;52.080;5.624;2023-08-12T08:02:18;22.90;99.90
25450;DHT22;13371;52.080;5.624;2023-08-12T08:04:44;22.80;99.90
25450;DHT22;13371;52.080;5.624;2023-08-12T08:07:10;23.00;99.90
25450;DHT22;13371;52.080;5.624;2023-08-12T08:09:36;23.10;99.90
25450;DHT22;13371;52.080;5.624;2023-08-12T08:12:02;23.20;99.90
25450;DHT22;13371;52.080;5.624;2023-08-12T08:14:28;23.30;99.90
25450;DHT22;13371;52.080;5.624;2023-08-12T08:16:53;23.00;99.90
25450;DHT22;13371;52.080;5.624;2023-08-12T08:19:19;22.80;99.90
25450;DHT22;13371;52.080;5.624;2023-08-12T08:21:45;22.40;99.90
25450;DHT22;13371;52.080;5.624;2023-08-12T08:24:10;22.40;99.90
25450;DHT22;13371;52.080;5.624;2023-08-12T08:26:38;22.50;99.90
25450;DHT22;13371;52.080;5.624;2023-08-12T08:29:04;22.70;99.90
25450;DHT22;13371;52.080;5.624;2023-08-12T08:31:30;22.90;99.90
25450;DHT22;13371;52.080;5.624;2023-08-12T08:33:55;22.90;99.90
25450;DHT22;13371;52.080;5.624;2023-08-12T08:36:21;23.00;99.90
25450;DHT22;13371;52.080;5.624;2023-08-12T08:38:46;23.00;99.90
25450;DHT22;13371;52.080;5.624;2023-08-12T08:41:13;23.20;99.90
25450;DHT22;13371;52.080;5.624;2023-08-12T08:43:41;23.40;99.90
25450;DHT22;13371;52.080;5.624;2023-08-12T08:46:09;23.50;99.90
25450;DHT22;13371;52.080;5.624;2023-08-12T08:48:37;23.40;99.90
25450;DHT22;13371;52.080;5.624;2023-08-12T08:51:03;23.30;99.90
25450;DHT22;13371;52.080;5.624;2023-08-12T08:53:30;23.40;99.90
25450;DHT22;13371;52.080;5.624;2023-08-12T08:55:56;23.50;99.90
25450;DHT22;13371;52.080;5.624;2023-08-12T08:58:23;23.30;99.90
25450;DHT22;13371;52.080;5.624;2023-08-12T09:00:49;23.30;99.90
25450;DHT22;13371;52.080;5.624;2023-08-12T09:03:16;23.30;99.90
25450;DHT22;13371;52.080;5.624;2023-08-12T09:05:42;23.20;99.90
25450;DHT22;13371;52.080;5.624;2023-08-12T09:08:09;23.20;99.90
25450;DHT22;13371;52.080;5.624;2023-08-12T09:10:38;23.20;99.90
25450;DHT22;13371;52.080;5.624;2023-08-12T09:13:04;23.20;99.90
25450;DHT22;13371;52.080;5.624;2023-08-12T09:15:30;23.40;99.90
25450;DHT22;13371;52.080;5.624;2023-08-12T09:17:55;23.40;99.90
25450;DHT22;13371;52.080;5.624;2023-08-12T09:20:21;23.50;99.90
25450;DHT22;13371;52.080;5.624;2023-08-12T09:22:55;23.40;99.90
25450;DHT22;13371;52.080;5.624;2023-08-12T09:25:22;23.50;99.90
25450;DHT22;13371;52.080;5.624;2023-08-12T09:27:48;23.20;99.90
25450;DHT22;13371;52.080;5.624;2023-08-12T09:30:14;23.10;99.90
25450;DHT22;13371;52.080;5.624;2023-08-12T09:32:40;23.20;99.90
25450;DHT22;13371;52.080;5.624;2023-08-12T09:35:10;23.00;99.90
25450;DHT22;13371;52.080;5.624;2023-08-12T09:37:41;22.80;99.90
25450;DHT22;13371;52.080;5.624;2023-08-12T09:40:07;22.60;99.90
25450;DHT22;13371;52.080;5.624;2023-08-12T09:42:34;22.70;99.90
25450;DHT22;13371;52.080;5.624;2023-08-12T09:45:00;22.80;99.90
25450;DHT22;13371;52.080;5.624;2023-08-12T09:47:26;22.90;99.90
25450;DHT22;13371;52.080;5.624;2023-08-12T09:49:52;23.30;99.90
25450;DHT22;13371;52.080;5.624;2023-08-12T09:52:18;23.60;99.90
25450;DHT22;13371;52.080;5.624;2023-08-12T09:54:44;23.80;99.90
25450;DHT22;13371;52.080;5.624;2023-08-12T09:57:11;23.90;99.90
25450;DHT22;13371;52.080;5.624;2023-08-12T09:59:38;23.60;99.90
25450;DHT22;13371;52.080;5.624;2023-08-12T10:02:06;23.30;99.90
25450;DHT22;13371;52.080;5.624;2023-08-12T10:04:37;22.60;99.90
25450;DHT22;13371;52.080;5.624;2023-08-12T10:07:06;22.60;99.90
25450;DHT22;13371;52.080;5.624;2023-08-12T10:09:33;22.40;99.90
25450;DHT22;13371;52.080;5.624;2023-08-12T10:11:59;22.20;99.90
25450;DHT22;13371;52.080;5.624;2023-08-12T10:14:25;22.40;99.90
25450;DHT22;13371;52.080;5.624;2023-08-12T10:16:52;22.50;99.90
25450;DHT22;13371;52.080;5.624;2023-08-12T10:19:19;22.30;99.90
25450;DHT22;13371;52.080;5.624;2023-08-12T10:21:48;22.40;99.90
25450;DHT22;13371;52.080;5.624;2023-08-12T10:24:16;22.20;99.90
25450;DHT22;13371;52.080;5.624;2023-08-12T10:26:42;22.20;99.90
25450;DHT22;13371;52.080;5.624;2023-08-12T10:29:08;22.40;99.90
25450;DHT22;13371;52.080;5.624;2023-08-12T10:31:34;22.50;99.90
25450;DHT22;13371;52.080;5.624;2023-08-12T10:34:00;22.60;99.90
25450;DHT22;13371;52.080;5.624;2023-08-12T10:36:28;23.10;99.90
25450;DHT22;13371;52.080;5.624;2023-08-12T10:38:56;23.40;99.90
25450;DHT22;13371;52.080;5.624;2023-08-12T10:41:23;23.60;99.90
25450;DHT22;13371;52.080;5.624;2023-08-12T10:46:32;23.40;99.90
25450;DHT22;13371;52.080;5.624;2023-08-12T10:49:11;23.50;99.90
25450;DHT22;13371;52.080;5.624;2023-08-12T10:51:44;23.60;99.90
25450;DHT22;13371;52.080;5.624;2023-08-12T10:54:23;23.80;99.90
25450;DHT22;13371;52.080;5.624;2023-08-12T10:57:10;24.00;99.90
25450;DHT22;13371;52.080;5.624;2023-08-12T11:02:32;24.70;99.90
25450;DHT22;13371;52.080;5.624;2023-08-12T11:05:12;25.00;99.90
25450;DHT22;13371;52.080;5.624;2023-08-12T11:08:04;25.20;99.90
25450;DHT22;13371;52.080;5.624;2023-08-12T11:10:32;25.40;99.90
25450;DHT22;13371;52.080;5.624;2023-08-12T11:12:59;25.30;99.00
25450;DHT22;13371;52.080;5.624;2023-08-12T11:15:44;25.30;99.90
25450;DHT22;13371;52.080;5.624;2023-08-12T11:18:16;25.30;98.40
25450;DHT22;13371;52.080;5.624;2023-08-12T11:20:43;25.40;98.80
25450;DHT22;13371;52.080;5.624;2023-08-12T11:23:09;25.50;99.00
25450;DHT22;13371;52.080;5.624;2023-08-12T11:25:36;25.70;98.20
25450;DHT22;13371;52.080;5.624;2023-08-12T11:28:04;25.70;98.60
25450;DHT22;13371;52.080;5.624;2023-08-12T11:30:30;25.70;97.70
25450;DHT22;13371;52.080;5.624;2023-08-12T11:32:56;25.60;98.00
25450;DHT22;13371;52.080;5.624;2023-08-12T11:35:22;25.40;97.80
25450;DHT22;13371;52.080;5.624;2023-08-12T11:37:53;25.40;97.80
25450;DHT22;13371;52.080;5.624;2023-08-12T11:40:20;25.30;97.80
25450;DHT22;13371;52.080;5.624;2023-08-12T11:42:48;25.10;96.70
25450;DHT22;13371;52.080;5.624;2023-08-12T11:45:20;25.00;96.40
25450;DHT22;13371;52.080;5.624;2023-08-12T11:47:46;24.90;98.10
25450;DHT22;13371;52.080;5.624;2023-08-12T11:50:25;24.70;98.40
25450;DHT22;13371;52.080;5.624;2023-08-12T11:52:52;24.90;96.10
25450;DHT22;13371;52.080;5.624;2023-08-12T11:55:18;25.00;96.40
25450;DHT22;13371;52.080;5.624;2023-08-12T11:57:45;25.10;95.80
25450;DHT22;13371;52.080;5.624;2023-08-12T12:00:12;24.80;96.20
25450;DHT22;13371;52.080;5.624;2023-08-12T12:03:06;24.80;96.00
25450;DHT22;13371;52.080;5.624;2023-08-12T12:05:35;25.10;96.10
25450;DHT22;13371;52.080;5.624;2023-08-12T12:08:13;25.40;95.70
25450;DHT22;13371;52.080;5.624;2023-08-12T12:10:44;25.80;96.70
25450;DHT22;13371;52.080;5.624;2023-08-12T12:13:38;26.00;95.60
25450;DHT22;13371;52.080;5.624;2023-08-12T12:16:15;25.90;94.20
25450;DHT22;13371;52.080;5.624;2023-08-12T12:18:41;26.30;94.80
25450;DHT22;13371;52.080;5.624;2023-08-12T12:21:24;26.10;92.20
25450;DHT22;13371;52.080;5.624;2023-08-12T12:23:55;26.20;94.30
25450;DHT22;13371;52.080;5.624;2023-08-12T12:29:26;26.60;92.80
25450;DHT22;13371;52.080;5.624;2023-08-12T12:32:00;26.30;90.60
25450;DHT22;13371;52.080;5.624;2023-08-12T12:34:28;26.30;91.90
25450;DHT22;13371;52.080;5.624;2023-08-12T12:37:20;26.60;93.20
25450;DHT22;13371;52.080;5.624;2023-08-12T12:39:46;26.70;93.20
25450;DHT22;13371;52.080;5.624;2023-08-12T12:42:12;26.70;91.20
25450;DHT22;13371;52.080;5.624;2023-08-12T12:44:38;26.50;89.60
25450;DHT22;13371;52.080;5.624;2023-08-12T12:47:03;26.80;91.60
25450;DHT22;13371;52.080;5.624;2023-08-12T12:49:29;26.70;89.00
25450;DHT22;13371;52.080;5.624;2023-08-12T12:51:55;26.80;91.10
25450;DHT22;13371;52.080;5.624;2023-08-12T12:54:21;26.70;89.90
25450;DHT22;13371;52.080;5.624;2023-08-12T12:56:46;26.70;90.60
25450;DHT22;13371;52.080;5.624;2023-08-12T12:59:12;26.80;88.60
25450;DHT22;13371;52.080;5.624;2023-08-12T13:01:40;26.80;87.40
25450;DHT22;13371;52.080;5.624;2023-08-12T13:04:05;27.10;91.70
25450;DHT22;13371;52.080;5.624;2023-08-12T13:06:33;26.70;88.10
25450;DHT22;13371;52.080;5.624;2023-08-12T13:08:59;26.60;89.40
25450;DHT22;13371;52.080;5.624;2023-08-12T13:11:25;26.50;88.70
25450;DHT22;13371;52.080;5.624;2023-08-12T13:13:50;26.50;88.00
25450;DHT22;13371;52.080;5.624;2023-08-12T13:16:16;26.70;88.00
25450;DHT22;13371;52.080;5.624;2023-08-12T13:18:43;26.80;89.30
25450;DHT22;13371;52.080;5.624;2023-08-12T13:21:08;26.50;87.80
25450;DHT22;13371;52.080;5.624;2023-08-12T13:23:34;26.40;90.00
25450;DHT22;13371;52.080;5.624;2023-08-12T13:25:59;26.70;90.30
25450;DHT22;13371;52.080;5.624;2023-08-12T13:28:25;26.70;87.80
25450;DHT22;13371;52.080;5.624;2023-08-12T13:30:50;27.10;90.20
25450;DHT22;13371;52.080;5.624;2023-08-12T13:33:16;26.60;85.50
25450;DHT22;13371;52.080;5.624;2023-08-12T13:35:42;26.60;90.50
25450;DHT22;13371;52.080;5.624;2023-08-12T13:38:07;26.80;90.70
25450;DHT22;13371;52.080;5.624;2023-08-12T13:40:33;26.80;86.20
25450;DHT22;13371;52.080;5.624;2023-08-12T13:42:58;27.00;89.40
25450;DHT22;13371;52.080;5.624;2023-08-12T13:45:24;27.00;87.10
25450;DHT22;13371;52.080;5.624;2023-08-12T13:47:50;27.00;87.60
25450;DHT22;13371;52.080;5.624;2023-08-12T13:50:19;27.00;88.30
25450;DHT22;13371;52.080;5.624;2023-08-12T13:52:48;27.10;86.10
25450;DHT22;13371;52.080;5.624;2023-08-12T13:55:17;27.00;84.20
25450;DHT22;13371;52.080;5.624;2023-08-12T13:57:43;26.90;85.80
25450;DHT22;13371;52.080;5.624;2023-08-12T14:00:09;26.80;83.70
25450;DHT22;13371;52.080;5.624;2023-08-12T14:02:36;26.80;84.30
25450;DHT22;13371;52.080;5.624;2023-08-12T14:05:02;26.70;86.40
25450;DHT22;13371;52.080;5.624;2023-08-12T14:07:28;26.60;82.70
25450;DHT22;13371;52.080;5.624;2023-08-12T14:09:54;26.40;83.70
25450;DHT22;13371;52.080;5.624;2023-08-12T14:12:23;26.30;84.70
25450;DHT22;13371;52.080;5.624;2023-08-12T14:14:49;26.20;87.10
25450;DHT22;13371;52.080;5.624;2023-08-12T14:17:15;25.80;84.90
25450;DHT22;13371;52.080;5.624;2023-08-12T14:19:44;25.80;86.10
25450;DHT22;13371;52.080;5.624;2023-08-12T14:22:09;25.70;83.90
25450;DHT22;13371;52.080;5.624;2023-08-12T14:24:35;25.90;86.30
25450;DHT22;13371;52.080;5.624;2023-08-12T14:27:00;26.30;85.90
25450;DHT22;13371;52.080;5.624;2023-08-12T14:29:26;26.60;88.60
25450;DHT22;13371;52.080;5.624;2023-08-12T14:31:52;26.70;84.40
25450;DHT22;13371;52.080;5.624;2023-08-12T14:34:18;26.70;84.00
25450;DHT22;13371;52.080;5.624;2023-08-12T14:36:44;27.00;83.80
25450;DHT22;13371;52.080;5.624;2023-08-12T14:39:09;27.10;84.50
25450;DHT22;13371;52.080;5.624;2023-08-12T14:41:35;27.00;83.50
25450;DHT22;13371;52.080;5.624;2023-08-12T14:44:00;26.90;82.80
25450;DHT22;13371;52.080;5.624;2023-08-12T14:46:26;26.80;84.30
25450;DHT22;13371;52.080;5.624;2023-08-12T14:48:51;27.00;83.80
25450;DHT22;13371;52.080;5.624;2023-08-12T14:51:19;26.80;84.00
25450;DHT22;13371;52.080;5.624;2023-08-12T14:53:44;26.80;84.20
25450;DHT22;13371;52.080;5.624;2023-08-12T14:56:13;27.00;85.00
25450;DHT22;13371;52.080;5.624;2023-08-12T14:58:40;27.10;83.60
25450;DHT22;13371;52.080;5.624;2023-08-12T15:01:06;27.20;83.10
25450;DHT22;13371;52.080;5.624;2023-08-12T15:03:32;26.90;82.10
25450;DHT22;13371;52.080;5.624;2023-08-12T15:06:02;26.90;84.50
25450;DHT22;13371;52.080;5.624;2023-08-12T15:08:29;26.70;84.40
25450;DHT22;13371;52.080;5.624;2023-08-12T15:10:55;26.60;87.40
25450;DHT22;13371;52.080;5.624;2023-08-12T15:13:21;26.60;83.90
25450;DHT22;13371;52.080;5.624;2023-08-12T15:15:47;26.30;84.90
25450;DHT22;13371;52.080;5.624;2023-08-12T15:18:13;26.50;86.60
25450;DHT22;13371;52.080;5.624;2023-08-12T15:20:38;26.50;84.20
25450;DHT22;13371;52.080;5.624;2023-08-12T15:23:04;26.60;83.90
25450;DHT22;13371;52.080;5.624;2023-08-12T15:25:29;26.70;86.10
25450;DHT22;13371;52.080;5.624;2023-08-12T15:27:56;26.30;83.70
25450;DHT22;13371;52.080;5.624;2023-08-12T15:30:22;26.50;85.30
25450;DHT22;13371;52.080;5.624;2023-08-12T15:32:48;26.20;83.00
25450;DHT22;13371;52.080;5.624;2023-08-12T15:35:13;26.20;83.40
25450;DHT22;13371;52.080;5.624;2023-08-12T15:37:39;26.30;83.60